KRNP

Owosso Community Airport

Owosso, Michigan, USA
METAR KRNP 162215Z AUTO 32004KT 10SM CLR M04/M10 A3028 RMK AO2 T10401105
Observed Flight Rules
Jan-16 @ 22:15 UTC (19 minutes ago) Visual Flight Rules
Wind Visibility Clouds
320° at 4 knots 10 miles
  • Clear skies
Temperatures Readings
Current -4°C / 25°F
Dewpoint -11°C / 12°F
Humidity 59%
Altimeter 30.28" Hg
Pressure 1025.42 hPa
Elevation 224
METAR KRNP 162215Z AUTO 32004KT 10SM CLR M04/M10 A3028 RMK AO2 T10401105
Observed Flight Rules
Jan-16 @ 22:15 UTC
(19 minutes ago)
VFR
Wind Visibility
320° at 4 knots 10 miles
Clouds
  • Clear skies
Temperature Dewpoint
-4°C / 25°F -11°C / 12°F
Humidity Altimeter Pressure
59% 30.28" Hg 1025.42 hPa